Hovedside
METAR-TAF:

METAR-TAF

Lufthavner :

Moss lufthavn. Rygge

Rygge, Norge

breddegrad: 59-23N, lengdegrad: 010-47E, høyde over havet: 5 m

Gjeldene værobservasjon

Denne rapporten ble laget for 17 minutter siden, klokken 11:20 UTC
Vind 9 kt fra Sørvest
Temperatur 5°C
Luftfuktighet 52%
Trykk 1006 hPa
Sikt 10 km eller mer
ingen skyer under 1500 m og ingen bygeskyer

METAR: ENRY 241120Z 22009KT CAVOK 05/M04 Q1006 NOSIG

Tid: 12:37 (11:37 UTC)

Varsel

Varsel gyldig fra 24. klokken 06 UTC til 25. klokken 06 UTC
Vind 8 kt fra Vest-nordvest
Sikt 10 km eller mer
ingen skyer under 1500 m og ingen bygeskyer
Blir
fra 24. klokken 06 UTC til 24. klokken 08 UTC
Vind 10 kt fra Sørvest
Blir
fra 24. klokken 18 UTC til 24. klokken 20 UTC
Vind 5 kt fra skiftende retning
Blir
fra 25. klokken 02 UTC til 25. klokken 04 UTC
Vind 10 kt fra Øst-nordøst
Brutte skyer i en høyde av 1200 ft

TAF: ENRY 2406/2506 30008KT CAVOK BECMG 2406/2408 23010KT BECMG 2418/2420 VRB05KT BECMG 2502/2504 06010KT BKN012

Værobservasjoner og værvarsel for over 4000 flyplasser (METAR- og TAF-rapporter).

Tilgjengelige stasjoner er representert av de røde og gule prikkene på kartet.

Hold musepekeren over prikken for å se navnet på stasjonen.

Klikk så for å se værobservasjoner og -varsler.

For å forandre kartet kan du klikke på den grønne knappen med svart kryss for å zoome inn, på den grønne knappen med strek for å zoome ut, eller på de grønne pilene for å se tilstøtende kart.


METAR-TAF: